createdAt,value
2023-01-19T00:00:29.201Z,81.76
2023-01-19T00:02:56.404Z,81.51
2023-01-19T00:05:23.200Z,81.85
2023-01-19T00:07:49.985Z,82.35
2023-01-19T00:10:17.156Z,82.24
2023-01-19T00:12:44.070Z,82.31
2023-01-19T00:15:11.438Z,81.88
2023-01-19T00:17:41.001Z,81.96
2023-01-19T00:20:09.823Z,81.60
2023-01-19T00:22:36.641Z,81.59
2023-01-19T00:25:03.975Z,81.65
2023-01-19T00:27:34.908Z,81.66
2023-01-19T00:30:02.416Z,81.79
2023-01-19T00:32:29.376Z,82.49
2023-01-19T00:34:56.198Z,82.49
2023-01-19T00:37:23.250Z,82.54
2023-01-19T00:39:50.365Z,82.42
2023-01-19T00:42:32.616Z,82.27
2023-01-19T00:44:59.680Z,82.02
2023-01-19T00:47:26.443Z,81.32
2023-01-19T00:49:53.186Z,81.72
2023-01-19T00:52:20.164Z,82.01
2023-01-19T00:54:47.078Z,81.62
2023-01-19T00:57:15.620Z,81.88
2023-01-19T00:59:42.697Z,81.72
2023-01-19T01:02:09.622Z,81.70
2023-01-19T01:04:36.451Z,82.01
2023-01-19T01:07:04.304Z,81.90
2023-01-19T01:09:31.205Z,82.15
2023-01-19T01:11:57.977Z,82.09
2023-01-19T01:14:26.681Z,81.97
2023-01-19T01:16:53.635Z,82.11
2023-01-19T01:19:21.528Z,81.90
2023-01-19T01:21:48.320Z,82.22
2023-01-19T01:24:15.118Z,82.64
2023-01-19T01:26:41.941Z,82.68
2023-01-19T01:29:08.742Z,82.64
2023-01-19T01:31:35.574Z,82.73
2023-01-19T01:34:02.567Z,82.85
2023-01-19T01:36:32.188Z,82.86
2023-01-19T01:39:00.121Z,83.10
2023-01-19T01:41:27.717Z,83.33
2023-01-19T01:44:01.768Z,83.44
2023-01-19T01:46:31.467Z,82.69
2023-01-19T01:49:05.758Z,83.10
2023-01-19T01:51:37.408Z,82.74
2023-01-19T01:54:19.623Z,82.43
2023-01-19T01:56:49.097Z,82.73
2023-01-19T01:59:29.852Z,82.60
2023-01-19T02:02:15.838Z,82.11
2023-01-19T02:04:54.356Z,82.22
2023-01-19T02:07:45.375Z,82.10
2023-01-19T02:10:27.266Z,81.76
2023-01-19T02:13:10.033Z,82.10
2023-01-19T02:15:36.983Z,81.41
2023-01-19T02:18:04.038Z,81.46
2023-01-19T02:20:35.846Z,81.29
2023-01-19T02:23:07.417Z,80.90
2023-01-19T02:25:34.484Z,81.04
2023-01-19T02:28:01.387Z,81.00
2023-01-19T02:30:28.784Z,80.96
2023-01-19T02:32:55.644Z,80.76
2023-01-19T02:35:23.667Z,80.33
2023-01-19T02:37:51.691Z,80.28
2023-01-19T02:40:21.223Z,80.46
2023-01-19T02:42:51.112Z,80.17
2023-01-19T02:45:21.912Z,80.46
2023-01-19T02:47:51.204Z,80.47
2023-01-19T02:50:34.434Z,80.45
2023-01-19T02:53:23.676Z,80.52
2023-01-19T02:56:03.888Z,80.01
2023-01-19T02:58:52.738Z,80.11
2023-01-19T03:01:21.755Z,80.19
2023-01-19T03:03:58.673Z,79.92
2023-01-19T03:06:39.142Z,79.89
2023-01-19T03:09:15.000Z,80.16
2023-01-19T03:11:47.087Z,80.66
2023-01-19T03:14:21.752Z,80.59
2023-01-19T03:16:55.890Z,80.45
2023-01-19T03:19:24.899Z,80.33
2023-01-19T03:21:57.615Z,80.55
2023-01-19T03:24:25.714Z,80.54
2023-01-19T03:26:58.988Z,80.46
2023-01-19T03:29:30.219Z,80.09
2023-01-19T03:31:59.877Z,80.05
2023-01-19T03:34:29.061Z,79.99
2023-01-19T03:37:00.588Z,80.17
2023-01-19T03:39:28.881Z,80.59
2023-01-19T03:42:02.421Z,80.76
2023-01-19T03:44:31.265Z,80.82
2023-01-19T03:46:59.910Z,80.76
2023-01-19T03:49:27.249Z,81.01
2023-01-19T03:51:59.071Z,80.54
2023-01-19T03:54:27.101Z,80.63
2023-01-19T03:56:54.132Z,80.40
2023-01-19T03:59:21.862Z,80.43
2023-01-19T04:01:48.748Z,80.65
2023-01-19T04:04:15.823Z,80.61
2023-01-19T04:06:43.374Z,80.66
2023-01-19T04:09:10.309Z,80.79
2023-01-19T04:11:37.035Z,80.94
2023-01-19T04:14:04.289Z,80.62
2023-01-19T04:16:31.082Z,80.73
2023-01-19T04:18:58.026Z,80.80
2023-01-19T04:21:24.930Z,80.47
2023-01-19T04:23:53.290Z,80.25
2023-01-19T04:26:20.313Z,80.03
2023-01-19T04:28:47.104Z,79.84
2023-01-19T04:31:14.433Z,80.31
2023-01-19T04:33:41.385Z,80.38
2023-01-19T04:36:08.761Z,80.31
2023-01-19T04:38:36.028Z,80.83
2023-01-19T04:41:02.768Z,80.40
2023-01-19T04:43:29.633Z,80.35
2023-01-19T04:45:56.903Z,80.51
2023-01-19T04:48:24.037Z,80.18
2023-01-19T04:50:52.512Z,80.39
2023-01-19T04:53:19.486Z,80.14
2023-01-19T04:55:46.896Z,80.18
2023-01-19T04:58:14.107Z,79.91
2023-01-19T05:00:40.847Z,80.01
2023-01-19T05:03:07.650Z,80.34
2023-01-19T05:05:34.595Z,80.47
2023-01-19T05:08:01.397Z,80.28
2023-01-19T05:10:28.813Z,79.96
2023-01-19T05:12:55.832Z,80.06
2023-01-19T05:15:23.047Z,80.56
2023-01-19T05:17:49.830Z,80.48
2023-01-19T05:20:17.554Z,80.17
2023-01-19T05:22:52.857Z,80.22
2023-01-19T05:25:20.333Z,80.19
2023-01-19T05:27:47.126Z,80.12
2023-01-19T05:30:14.441Z,79.77
2023-01-19T05:32:41.617Z,79.79
2023-01-19T05:35:09.206Z,79.77
2023-01-19T05:37:35.961Z,79.85
2023-01-19T05:40:02.815Z,80.20
2023-01-19T05:42:31.913Z,80.23
2023-01-19T05:44:59.958Z,80.11
2023-01-19T05:47:29.342Z,80.34
2023-01-19T05:49:56.480Z,79.95
2023-01-19T05:52:25.054Z,80.05
2023-01-19T05:54:51.954Z,79.75
2023-01-19T05:57:19.209Z,79.67
2023-01-19T05:59:45.969Z,79.65
2023-01-19T06:02:12.961Z,80.18
2023-01-19T06:04:39.824Z,79.79
2023-01-19T06:07:07.728Z,80.23
2023-01-19T06:09:34.514Z,80.08
2023-01-19T06:12:01.592Z,79.77
2023-01-19T06:14:28.344Z,79.69
2023-01-19T06:16:55.348Z,79.86
2023-01-19T06:19:22.196Z,80.41
2023-01-19T06:21:52.143Z,80.55
2023-01-19T06:24:19.509Z,80.67
2023-01-19T06:26:46.465Z,81.29
2023-01-19T06:29:14.546Z,81.95
2023-01-19T06:31:42.007Z,82.26
2023-01-19T06:34:09.666Z,82.02
2023-01-19T06:36:36.872Z,82.33
2023-01-19T06:39:06.004Z,82.25
2023-01-19T06:41:34.198Z,82.42
2023-01-19T06:44:01.989Z,82.52
2023-01-19T06:46:29.688Z,82.82
2023-01-19T06:48:56.787Z,83.09
2023-01-19T06:51:24.136Z,82.71
2023-01-19T06:53:51.076Z,82.04
2023-01-19T06:56:17.885Z,82.42
2023-01-19T06:58:47.451Z,82.31
2023-01-19T07:01:14.593Z,82.18
2023-01-19T07:03:41.460Z,82.20
2023-01-19T07:06:08.776Z,81.86
2023-01-19T07:08:36.997Z,82.15
2023-01-19T07:11:26.264Z,82.16
2023-01-19T07:13:54.685Z,81.70
2023-01-19T07:16:21.688Z,82.05
2023-01-19T07:18:49.570Z,82.21
2023-01-19T07:21:16.822Z,82.64
2023-01-19T07:23:43.673Z,83.03
2023-01-19T07:26:10.961Z,83.37
2023-01-19T07:28:37.905Z,83.79
2023-01-19T07:31:04.897Z,83.60
2023-01-19T07:33:31.855Z,83.05
2023-01-19T07:35:58.747Z,83.27
2023-01-19T07:38:25.679Z,84.02
2023-01-19T07:40:52.409Z,84.11
2023-01-19T07:43:19.831Z,83.66
2023-01-19T07:45:46.769Z,83.50
2023-01-19T07:48:13.565Z,83.60
2023-01-19T07:50:40.361Z,83.85
2023-01-19T07:53:08.922Z,83.44
2023-01-19T07:55:35.940Z,83.55
2023-01-19T07:58:06.678Z,83.68
2023-01-19T08:00:35.422Z,83.56
2023-01-19T08:03:04.157Z,83.93
2023-01-19T08:05:32.628Z,84.00
2023-01-19T08:07:59.412Z,84.06
2023-01-19T08:10:28.373Z,83.81
2023-01-19T08:12:56.410Z,83.47
2023-01-19T08:15:24.843Z,83.36
2023-01-19T08:18:09.621Z,83.20
2023-01-19T08:20:36.681Z,82.95
2023-01-19T08:23:04.940Z,82.81
2023-01-19T08:25:34.254Z,82.92
2023-01-19T08:28:01.646Z,82.80
2023-01-19T08:30:28.504Z,83.11
2023-01-19T08:33:04.472Z,83.00
2023-01-19T08:35:32.525Z,82.62
2023-01-19T08:38:01.635Z,82.78
2023-01-19T08:40:30.164Z,83.13
2023-01-19T08:43:01.943Z,82.75
2023-01-19T08:45:31.104Z,82.37
2023-01-19T08:48:00.207Z,82.23
2023-01-19T08:50:29.124Z,82.47
2023-01-19T08:52:58.138Z,83.26
2023-01-19T08:55:25.738Z,83.17
2023-01-19T08:57:53.827Z,83.53
2023-01-19T09:00:21.504Z,83.13
2023-01-19T09:02:49.032Z,82.85
2023-01-19T09:05:16.058Z,82.98
2023-01-19T09:07:44.527Z,82.76
2023-01-19T09:10:12.042Z,82.63
2023-01-19T09:12:38.773Z,82.24
2023-01-19T09:15:06.187Z,81.87
2023-01-19T09:17:33.643Z,81.33
2023-01-19T09:20:00.421Z,81.29
2023-01-19T09:22:27.228Z,80.93
2023-01-19T09:24:53.953Z,80.69
2023-01-19T09:27:20.789Z,80.09
2023-01-19T09:29:52.605Z,79.87
2023-01-19T09:32:20.975Z,78.88
2023-01-19T09:34:48.061Z,78.39
2023-01-19T09:37:16.334Z,78.87
2023-01-19T09:39:43.217Z,78.81
2023-01-19T09:42:22.450Z,79.12
2023-01-19T09:44:51.014Z,79.88
2023-01-19T09:47:24.162Z,79.95
2023-01-19T09:49:58.853Z,80.68
2023-01-19T09:52:25.935Z,80.59
2023-01-19T09:54:55.117Z,80.13
2023-01-19T09:57:24.049Z,80.11
2023-01-19T09:59:51.605Z,80.19
2023-01-19T10:02:26.308Z,79.92
2023-01-19T10:05:08.786Z,79.49
2023-01-19T10:07:58.229Z,79.76
2023-01-19T10:10:28.391Z,79.79
2023-01-19T10:12:56.257Z,79.70
2023-01-19T10:15:52.977Z,79.50
2023-01-19T10:18:25.693Z,79.15
2023-01-19T10:20:52.480Z,78.94
2023-01-19T10:23:39.890Z,79.11
2023-01-19T10:26:22.908Z,79.11
2023-01-19T10:28:53.157Z,79.05
2023-01-19T10:31:24.093Z,78.77
2023-01-19T10:33:52.591Z,79.01
2023-01-19T10:36:26.379Z,79.16
2023-01-19T10:38:53.423Z,79.11
2023-01-19T10:41:28.560Z,78.65
2023-01-19T10:44:05.509Z,78.91
2023-01-19T10:46:37.376Z,79.04
2023-01-19T10:49:05.703Z,78.88
2023-01-19T10:51:32.592Z,78.77
2023-01-19T10:54:03.222Z,78.54
2023-01-19T10:56:35.136Z,78.76
2023-01-19T10:59:04.665Z,78.81
2023-01-19T11:01:36.042Z,78.56
2023-01-19T11:04:22.267Z,78.75
2023-01-19T11:06:49.080Z,78.81
2023-01-19T11:09:18.910Z,78.53
2023-01-19T11:11:49.421Z,78.40
2023-01-19T11:14:20.299Z,78.31
2023-01-19T11:16:51.599Z,78.37
2023-01-19T11:19:24.726Z,78.53
2023-01-19T11:21:51.996Z,78.30
2023-01-19T11:24:20.125Z,78.33
2023-01-19T11:26:50.357Z,78.30
2023-01-19T11:29:23.998Z,78.02
2023-01-19T11:31:51.826Z,77.84
2023-01-19T11:34:24.228Z,77.97
2023-01-19T11:37:01.502Z,78.28
2023-01-19T11:39:31.435Z,78.05
2023-01-19T11:42:02.787Z,78.53
2023-01-19T11:44:32.989Z,78.54
2023-01-19T11:47:02.158Z,78.19
2023-01-19T11:49:37.517Z,78.41
2023-01-19T11:52:25.833Z,78.40
2023-01-19T11:55:17.461Z,78.37
2023-01-19T11:57:47.820Z,78.64
2023-01-19T12:00:24.831Z,78.58
2023-01-19T12:02:57.453Z,78.61
2023-01-19T12:05:29.734Z,78.39
2023-01-19T12:08:03.039Z,78.00
2023-01-19T12:10:36.416Z,78.20
2023-01-19T12:13:04.054Z,78.50
2023-01-19T12:15:47.370Z,79.04
2023-01-19T12:18:21.859Z,79.29
2023-01-19T12:20:52.996Z,79.41
2023-01-19T12:23:20.796Z,79.83
2023-01-19T12:25:47.602Z,79.73
2023-01-19T12:28:17.476Z,79.47
2023-01-19T12:30:44.586Z,79.23
2023-01-19T12:33:26.575Z,79.42
2023-01-19T12:36:03.965Z,79.48
2023-01-19T12:38:35.205Z,79.99
2023-01-19T12:41:33.329Z,80.02
2023-01-19T12:44:20.672Z,80.19
2023-01-19T12:47:20.322Z,80.30
2023-01-19T12:49:51.496Z,79.94
2023-01-19T12:52:19.815Z,79.95
2023-01-19T12:54:57.659Z,79.87
2023-01-19T12:57:32.748Z,79.56
2023-01-19T13:00:07.142Z,79.80
2023-01-19T13:02:42.802Z,79.75
2023-01-19T13:05:10.641Z,80.12
2023-01-19T13:08:09.477Z,79.95
2023-01-19T13:10:52.809Z,79.68
2023-01-19T13:13:25.212Z,79.72
2023-01-19T13:15:55.762Z,79.66
2023-01-19T13:18:28.355Z,79.66
2023-01-19T13:21:00.206Z,79.49
2023-01-19T13:23:29.717Z,79.60
2023-01-19T13:26:04.906Z,79.26
2023-01-19T13:28:39.304Z,79.53
2023-01-19T13:31:07.209Z,79.48
2023-01-19T13:33:44.329Z,79.63
2023-01-19T13:36:22.611Z,79.72
2023-01-19T13:38:51.695Z,79.48
2023-01-19T13:41:23.121Z,79.48
2023-01-19T13:44:05.395Z,79.65
2023-01-19T13:46:33.679Z,79.74
2023-01-19T13:49:13.804Z,79.90
2023-01-19T13:51:40.639Z,80.30
2023-01-19T13:54:16.889Z,80.44
2023-01-19T21:57:08.799Z,71.45
2023-01-19T21:59:35.730Z,71.41
2023-01-19T22:02:02.634Z,71.69
2023-01-19T22:04:29.920Z,72.22
2023-01-19T22:06:56.635Z,72.69
2023-01-19T22:09:23.434Z,73.42
2023-01-19T22:11:50.251Z,73.95
2023-01-19T22:14:17.030Z,74.36
2023-01-19T22:16:44.174Z,74.74
2023-01-19T22:19:12.996Z,75.21
2023-01-19T22:21:40.085Z,75.42
2023-01-19T22:24:07.422Z,75.58
2023-01-19T22:26:35.055Z,75.79
2023-01-19T22:29:03.840Z,76.14
2023-01-19T22:31:31.135Z,75.91
2023-01-19T22:33:58.773Z,76.37
2023-01-19T22:36:29.016Z,76.55
2023-01-19T22:38:59.733Z,77.36
2023-01-19T22:41:31.980Z,77.48
2023-01-19T22:44:01.896Z,77.84
2023-01-19T22:46:32.166Z,78.02
2023-01-19T22:48:59.898Z,78.02
2023-01-19T22:51:28.619Z,78.26
2023-01-19T22:53:55.494Z,78.36
2023-01-19T22:56:27.929Z,78.54
2023-01-19T22:58:55.123Z,78.69
2023-01-19T23:01:24.978Z,79.26
2023-01-19T23:03:53.090Z,78.84
2023-01-19T23:06:23.862Z,78.58
2023-01-19T23:08:51.613Z,78.80
2023-01-19T23:11:21.368Z,78.87
2023-01-19T23:13:48.741Z,78.69
2023-01-19T23:16:15.879Z,78.60
2023-01-19T23:18:43.859Z,78.63
2023-01-19T23:21:12.468Z,78.75
2023-01-19T23:23:39.955Z,79.34
2023-01-19T23:26:12.341Z,79.40
2023-01-19T23:28:39.627Z,79.21
2023-01-19T23:31:14.326Z,79.21
2023-01-19T23:33:41.876Z,79.20
2023-01-19T23:36:08.827Z,79.24
2023-01-19T23:38:35.657Z,79.12
2023-01-19T23:41:02.415Z,78.81
2023-01-19T23:43:29.318Z,78.91
2023-01-19T23:45:56.406Z,78.83
2023-01-19T23:48:23.339Z,78.76
2023-01-19T23:50:50.148Z,78.85
2023-01-19T23:53:17.055Z,78.82
2023-01-19T23:55:43.810Z,78.82
2023-01-19T23:58:10.563Z,78.33
